createdAt,value
2023-04-15T00:00:03.447Z,99348.91
2023-04-15T00:02:41.489Z,99352.34
2023-04-15T00:05:10.401Z,99352.28
2023-04-15T00:07:40.466Z,99353.03
2023-04-15T00:10:09.919Z,99353.91
2023-04-15T00:12:38.458Z,99351.22
2023-04-15T00:15:10.361Z,99345.16
2023-04-15T00:17:39.842Z,99351.19
2023-04-15T00:20:09.227Z,99348.56
2023-04-15T00:22:37.733Z,99350.25
2023-04-15T00:25:06.881Z,99349.38
2023-04-15T00:27:35.426Z,99348.47
2023-04-15T00:30:04.199Z,99351.91
2023-04-15T00:32:34.266Z,99348.38
2023-04-15T00:35:03.191Z,99350.94
2023-04-15T00:37:32.112Z,99352.59
2023-04-15T00:40:00.598Z,99350.84
2023-04-15T00:42:29.500Z,99348.19
2023-04-15T00:44:58.319Z,99348.16
2023-04-15T00:47:28.962Z,99347.25
2023-04-15T00:49:59.477Z,99349.81
2023-04-15T00:52:28.004Z,99352.38
2023-04-15T00:54:56.922Z,99358.47
2023-04-15T00:57:25.630Z,99347.97
2023-04-15T00:59:54.078Z,99347.94
2023-04-15T01:02:23.479Z,99353.16
2023-04-15T01:04:52.533Z,99353.97
2023-04-15T01:07:22.537Z,99349.69
2023-04-15T01:09:51.336Z,99345.34
2023-04-15T01:12:21.217Z,99349.63
2023-04-15T01:14:50.090Z,99347.09
2023-04-15T01:17:19.134Z,99345.34
2023-04-15T01:19:47.888Z,99343.56
2023-04-15T01:22:16.643Z,99339.19
2023-04-15T01:24:55.433Z,99335.66
2023-04-15T01:27:26.089Z,99335.59
2023-04-15T01:29:54.672Z,99342.53
2023-04-15T01:32:23.604Z,99338.97
2023-04-15T01:34:53.778Z,99342.41
2023-04-15T01:37:26.021Z,99334.56
2023-04-15T01:39:54.558Z,99350.97
2023-04-15T01:42:26.407Z,99342.22
2023-04-15T01:44:55.077Z,99331.69
2023-04-15T01:47:23.663Z,99342.91
2023-04-15T01:49:52.377Z,99341.09
2023-04-15T01:52:21.037Z,99345.31
2023-04-15T01:54:49.592Z,99338.31
2023-04-15T01:57:18.118Z,99341.72
2023-04-15T01:59:48.407Z,99344.16
2023-04-15T02:02:17.476Z,99340.59
2023-04-15T02:04:46.076Z,99338.75
2023-04-15T02:07:14.543Z,99336.03
2023-04-15T02:09:43.502Z,99340.25
2023-04-15T02:12:12.465Z,99345.34
2023-04-15T02:14:41.004Z,99341.75
2023-04-15T02:17:10.899Z,99345.13
2023-04-15T02:19:40.525Z,99339.75
2023-04-15T02:22:09.439Z,99338.78
2023-04-15T02:24:38.023Z,99343.00
2023-04-15T02:27:06.576Z,99351.66
2023-04-15T02:29:35.143Z,99349.78
2023-04-15T02:32:03.924Z,99355.78
2023-04-15T02:34:34.006Z,99354.84
2023-04-15T02:37:03.871Z,99353.84
2023-04-15T02:39:32.867Z,99358.97
2023-04-15T02:42:01.451Z,99359.75
2023-04-15T02:44:30.053Z,99364.00
2023-04-15T02:47:01.283Z,99364.72
2023-04-15T02:49:30.912Z,99368.13
2023-04-15T02:52:00.754Z,99377.66
2023-04-15T02:54:29.992Z,99368.91
2023-04-15T02:56:58.813Z,99370.56
2023-04-15T02:59:27.368Z,99371.38
2023-04-15T03:02:01.098Z,99376.56
2023-04-15T03:04:30.874Z,99378.22
2023-04-15T03:07:01.096Z,99371.28
2023-04-15T03:09:29.769Z,99379.06
2023-04-15T03:11:59.326Z,99383.34
2023-04-15T03:14:28.020Z,99375.44
2023-04-15T03:16:56.666Z,99376.28
2023-04-15T03:19:25.569Z,99374.44
2023-04-15T03:21:56.002Z,99379.56
2023-04-15T03:24:25.918Z,99384.69
2023-04-15T03:26:55.197Z,99391.59
2023-04-15T03:29:25.151Z,99391.53
2023-04-15T03:31:54.667Z,99383.66
2023-04-15T03:34:23.141Z,99387.84
2023-04-15T03:36:52.313Z,99380.91
2023-04-15T03:39:21.084Z,99388.63
2023-04-15T03:41:50.965Z,99387.75
2023-04-15T03:44:19.508Z,99400.75
2023-04-15T03:46:48.225Z,99398.06
2023-04-15T03:49:16.872Z,99404.91
2023-04-15T03:51:45.492Z,99404.03
2023-04-15T03:54:15.316Z,99402.22
2023-04-15T03:56:44.019Z,99416.97
2023-04-15T03:59:13.960Z,99413.50
2023-04-15T04:01:42.509Z,99415.22
2023-04-15T04:04:11.147Z,99418.63
2023-04-15T04:06:39.808Z,99412.56
2023-04-15T04:09:08.347Z,99420.31
2023-04-15T04:11:37.622Z,99421.13
2023-04-15T04:14:06.173Z,99417.66
2023-04-15T04:16:36.429Z,99418.53
2023-04-15T04:19:04.987Z,99418.53
2023-04-15T04:21:34.174Z,99420.31
2023-04-15T04:24:02.820Z,99414.22
2023-04-15T04:26:31.293Z,99423.72
2023-04-15T04:28:59.951Z,99420.19
2023-04-15T04:31:29.189Z,99426.22
2023-04-15T04:33:59.164Z,99423.53
2023-04-15T04:36:27.776Z,99424.34
2023-04-15T04:38:56.342Z,99431.28
2023-04-15T04:41:24.828Z,99433.06
2023-04-15T04:43:53.293Z,99436.63
2023-04-15T04:46:21.868Z,99441.09
2023-04-15T04:48:50.445Z,99437.75
2023-04-15T04:51:20.845Z,99437.03
2023-04-15T04:53:49.398Z,99450.13
2023-04-15T04:56:17.995Z,99452.00
2023-04-15T04:58:46.774Z,99450.34
2023-04-15T05:01:15.608Z,99450.44
2023-04-15T05:03:44.412Z,99447.94
2023-04-15T05:06:13.065Z,99450.63
2023-04-15T05:08:43.011Z,99456.81
2023-04-15T05:11:11.533Z,99460.38
2023-04-15T05:13:40.235Z,99456.13
2023-04-15T05:16:09.578Z,99461.41
2023-04-15T05:18:38.226Z,99474.47
2023-04-15T05:21:07.667Z,99471.09
2023-04-15T05:23:36.268Z,99472.03
2023-04-15T05:26:06.217Z,99466.88
2023-04-15T05:28:35.014Z,99467.00
2023-04-15T05:31:03.700Z,99466.19
2023-04-15T05:33:32.332Z,99468.91
2023-04-15T05:36:01.282Z,99477.72
2023-04-15T05:38:29.739Z,99479.56
2023-04-15T05:40:58.399Z,99479.69
2023-04-15T05:43:28.350Z,99485.91
2023-04-15T05:45:56.912Z,99484.28
2023-04-15T05:48:25.518Z,99488.78
2023-04-15T05:50:54.225Z,99491.50
2023-04-15T05:53:22.734Z,99490.72
2023-04-15T05:55:51.202Z,99501.34
2023-04-15T05:58:19.639Z,99509.31
2023-04-15T06:00:49.786Z,99510.31
2023-04-15T06:03:18.542Z,99513.06
2023-04-15T06:05:46.993Z,99513.19
2023-04-15T06:08:15.485Z,99522.91
2023-04-15T06:10:44.136Z,99521.34
2023-04-15T06:13:12.971Z,99528.38
2023-04-15T06:15:41.473Z,99533.00
2023-04-15T06:18:13.102Z,99539.25
2023-04-15T06:20:42.131Z,99538.56
2023-04-15T06:23:10.850Z,99537.84
2023-04-15T06:25:39.688Z,99541.47
2023-04-15T06:28:08.480Z,99546.88
2023-04-15T06:30:37.120Z,99545.34
2023-04-15T06:33:06.323Z,99547.28
2023-04-15T06:35:36.147Z,99547.50
2023-04-15T06:38:04.689Z,99548.53
2023-04-15T06:40:33.296Z,99552.25
2023-04-15T06:43:01.847Z,99554.22
2023-04-15T06:45:30.374Z,99553.63
2023-04-15T06:47:58.882Z,99556.50
2023-04-15T06:50:28.291Z,99555.03
2023-04-15T06:52:58.389Z,99561.38
2023-04-15T06:55:27.528Z,99568.59
2023-04-15T06:57:56.263Z,99564.47
2023-04-15T07:00:25.473Z,99575.09
2023-04-15T07:02:55.324Z,99572.72
2023-04-15T07:05:25.477Z,99571.19
2023-04-15T07:07:53.919Z,99570.56
2023-04-15T07:10:25.583Z,99577.66
2023-04-15T07:12:54.540Z,99584.84
2023-04-15T07:15:23.599Z,99593.72
2023-04-15T07:17:52.525Z,99593.84
2023-04-15T07:20:21.487Z,99589.59
2023-04-15T07:22:49.881Z,99603.66
2023-04-15T07:25:19.052Z,99602.88
2023-04-15T07:27:48.950Z,99609.91
2023-04-15T07:30:17.993Z,99609.09
2023-04-15T07:32:47.063Z,99601.25
2023-04-15T07:35:15.772Z,99614.44
2023-04-15T07:37:44.504Z,99618.03
2023-04-15T07:40:14.617Z,99616.34
2023-04-15T07:42:43.553Z,99626.91
2023-04-15T07:45:13.914Z,99635.69
2023-04-15T07:47:42.678Z,99630.44
2023-04-15T07:50:12.420Z,99630.50
2023-04-15T07:52:41.307Z,99634.91
2023-04-15T07:55:10.844Z,99642.75
2023-04-15T07:57:39.376Z,99639.31
2023-04-15T08:00:09.550Z,99639.31
2023-04-15T08:02:46.987Z,99642.81
2023-04-15T08:05:15.894Z,99641.06
2023-04-15T08:07:44.719Z,99644.53
2023-04-15T08:10:16.200Z,99641.06
2023-04-15T08:12:45.636Z,99647.22
2023-04-15T08:15:14.250Z,99651.63
2023-04-15T08:17:43.212Z,99656.00
2023-04-15T08:20:13.523Z,99663.88
2023-04-15T08:22:42.534Z,99670.03
2023-04-15T08:25:11.333Z,99671.94
2023-04-15T08:27:39.837Z,99663.41
2023-04-15T08:30:09.893Z,99675.78
2023-04-15T08:32:38.767Z,99668.03
2023-04-15T08:35:07.972Z,99665.47
2023-04-15T08:37:37.835Z,99670.78
2023-04-15T08:40:08.547Z,99675.25
2023-04-15T08:42:43.614Z,99675.31
2023-04-15T08:45:13.470Z,99672.78
2023-04-15T08:47:44.016Z,99682.44
2023-04-15T08:50:13.632Z,99679.88
2023-04-15T08:52:43.814Z,99680.78
2023-04-15T08:55:14.683Z,99678.31
2023-04-15T08:57:43.437Z,99684.50
2023-04-15T09:00:14.062Z,99682.84
2023-04-15T09:02:43.051Z,99691.72
2023-04-15T09:05:11.789Z,99683.09
2023-04-15T09:07:40.320Z,99682.34
2023-04-15T09:10:13.325Z,99687.72
2023-04-15T09:12:41.968Z,99685.97
2023-04-15T09:15:13.260Z,99685.16
2023-04-15T09:17:44.751Z,99695.72
2023-04-15T09:20:15.414Z,99698.41
2023-04-15T09:22:46.262Z,99694.13
2023-04-15T09:25:34.825Z,99699.50
2023-04-15T09:28:04.065Z,99695.25
2023-04-15T09:30:32.562Z,99708.53
2023-04-15T09:33:02.898Z,99705.19
2023-04-15T09:35:31.582Z,99710.56
2023-04-15T09:38:04.657Z,99713.31
2023-04-15T09:40:36.122Z,99715.09
2023-04-15T09:43:06.157Z,99719.44
2023-04-15T09:45:35.806Z,99716.84
2023-04-15T09:48:18.151Z,99723.88
2023-04-15T09:50:46.837Z,99724.81
2023-04-15T09:53:18.459Z,99724.84
2023-04-15T09:55:51.634Z,99731.06
2023-04-15T09:58:21.199Z,99725.03
2023-04-15T10:00:51.639Z,99732.97
2023-04-15T10:03:22.811Z,99726.94
2023-04-15T10:05:53.724Z,99734.00
2023-04-15T10:08:25.060Z,99735.84
2023-04-15T10:10:55.509Z,99745.53
2023-04-15T10:13:26.489Z,99746.47
2023-04-15T10:15:59.813Z,99746.53
2023-04-15T10:18:32.270Z,99751.78
2023-04-15T10:21:02.053Z,99756.97
2023-04-15T10:23:30.628Z,99757.84
2023-04-15T10:26:01.247Z,99756.97
2023-04-15T10:28:29.855Z,99758.69
2023-04-15T10:30:59.878Z,99756.00
2023-04-15T10:33:29.995Z,99762.13
2023-04-15T10:35:59.114Z,99760.41
2023-04-15T10:38:35.096Z,99763.91
2023-04-15T10:41:21.281Z,99760.41
2023-04-15T10:43:52.917Z,99770.94
2023-04-15T10:46:25.660Z,99774.44
2023-04-15T10:48:55.206Z,99769.16
2023-04-15T10:51:32.075Z,99783.16
2023-04-15T10:54:01.481Z,99781.38
2023-04-15T10:56:32.072Z,99784.75
2023-04-15T10:59:02.126Z,99788.16
2023-04-15T11:02:02.619Z,99789.78
2023-04-15T11:04:53.377Z,99789.66
2023-04-15T11:07:43.502Z,99787.88
2023-04-15T11:10:50.800Z,99794.78
2023-04-15T11:13:29.167Z,99796.38
2023-04-15T11:16:01.325Z,99797.22
2023-04-15T11:18:33.010Z,99798.13
2023-04-15T11:21:04.172Z,99798.13
2023-04-15T11:23:35.863Z,99801.63
2023-04-15T11:26:09.393Z,99803.50
2023-04-15T11:28:41.206Z,99802.69
2023-04-15T11:31:11.951Z,99809.81
2023-04-15T11:33:48.095Z,99815.22
2023-04-15T11:36:16.703Z,99813.53
2023-04-15T11:38:47.346Z,99815.38
2023-04-15T11:41:16.641Z,99811.94
2023-04-15T11:43:47.012Z,99815.53
2023-04-15T11:46:15.997Z,99823.44
2023-04-15T11:48:46.911Z,99828.69
2023-04-15T11:51:16.011Z,99823.41
2023-04-15T11:53:46.043Z,99831.16
2023-04-15T11:56:21.034Z,99834.56
2023-04-15T11:58:53.912Z,99834.41
2023-04-15T12:01:22.582Z,99836.97
2023-04-15T12:03:51.244Z,99845.63
2023-04-15T12:06:20.936Z,99846.44
2023-04-15T12:08:54.715Z,99851.66
2023-04-15T12:11:30.551Z,99854.19
2023-04-15T12:14:04.576Z,99856.78
2023-04-15T12:16:37.199Z,99855.81
2023-04-15T12:19:19.027Z,99862.75
2023-04-15T12:21:49.405Z,99872.34
2023-04-15T12:24:21.794Z,99874.03
2023-04-15T12:26:51.519Z,99872.25
2023-04-15T12:29:28.068Z,99880.09
2023-04-15T12:31:58.130Z,99880.03
2023-04-15T12:34:31.186Z,99893.94
2023-04-15T12:37:01.579Z,99896.50
2023-04-15T12:39:32.816Z,99901.72
2023-04-15T12:42:02.725Z,99904.25
2023-04-15T12:44:33.389Z,99908.56
2023-04-15T12:47:02.217Z,99911.09
2023-04-15T12:49:31.068Z,99912.72
2023-04-15T12:52:01.145Z,99914.44
2023-04-15T12:54:30.340Z,99918.81
2023-04-15T12:57:00.024Z,99916.97
2023-04-15T12:59:29.783Z,99923.91
2023-04-15T13:02:00.902Z,99925.69
2023-04-15T13:04:31.313Z,99919.53
2023-04-15T13:07:00.233Z,99936.97
2023-04-15T13:09:29.020Z,99941.34
2023-04-15T13:11:58.230Z,99948.34
2023-04-15T13:14:27.204Z,99944.91
2023-04-15T13:16:55.818Z,99941.41
2023-04-15T13:19:25.867Z,99955.41
2023-04-15T13:21:54.536Z,99948.47
2023-04-15T13:24:23.146Z,99963.34
2023-04-15T13:26:52.132Z,99958.19
2023-04-15T13:29:20.809Z,99957.34
2023-04-15T13:31:49.584Z,99964.38
2023-04-15T13:34:18.301Z,99968.81
2023-04-15T13:36:48.376Z,99966.22
2023-04-15T13:39:17.365Z,99973.28
2023-04-15T13:41:49.022Z,99974.16
2023-04-15T13:44:17.751Z,99973.28
2023-04-15T13:46:48.425Z,99979.41
2023-04-15T13:49:18.226Z,99990.81
2023-04-15T13:51:48.975Z,99993.44
2023-04-15T13:54:18.761Z,99993.38
2023-04-15T13:56:48.870Z,99996.00
2023-04-15T13:59:17.651Z,99995.94
2023-04-15T14:01:46.197Z,99993.28
2023-04-15T14:04:15.332Z,99995.00
2023-04-15T14:06:44.186Z,99996.72
2023-04-15T14:09:14.310Z,99998.50
2023-04-15T14:11:42.904Z,100000.25
2023-04-15T14:14:11.517Z,100007.25
2023-04-15T14:16:40.222Z,100011.69
2023-04-15T14:19:09.552Z,100016.03
2023-04-15T14:21:38.150Z,100009.94
2023-04-15T14:24:07.614Z,100016.91
2023-04-15T14:26:37.739Z,100023.06
2023-04-15T14:29:06.493Z,100017.72
2023-04-15T14:31:35.086Z,100026.41
2023-04-15T14:34:04.093Z,100022.88
2023-04-15T14:36:33.561Z,100028.94
2023-04-15T14:39:02.216Z,100028.94
2023-04-15T14:41:30.832Z,100035.88
2023-04-15T14:44:00.873Z,100031.44
2023-04-15T14:46:29.541Z,100038.38
2023-04-15T14:48:58.635Z,100043.56
2023-04-15T14:51:27.350Z,100048.72
2023-04-15T14:53:55.929Z,100058.25
2023-04-15T14:56:24.576Z,100054.69
2023-04-15T14:58:54.212Z,100057.25
2023-04-15T15:01:25.085Z,100060.72
2023-04-15T15:03:54.042Z,100069.47
2023-04-15T15:06:23.142Z,100066.84
2023-04-15T15:08:51.710Z,100072.94
2023-04-15T15:11:20.117Z,100077.28
2023-04-15T15:13:49.038Z,100074.66
2023-04-15T15:16:17.773Z,100082.47
2023-04-15T15:18:47.813Z,100085.06
2023-04-15T15:21:16.289Z,100081.50
2023-04-15T15:23:45.937Z,100088.50
2023-04-15T15:26:14.478Z,100092.81
2023-04-15T15:28:43.313Z,100093.63
2023-04-15T15:31:11.953Z,100093.50
2023-04-15T15:33:40.395Z,100095.22
2023-04-15T15:36:11.279Z,100089.06
2023-04-15T15:38:41.865Z,100096.88
2023-04-15T15:41:10.311Z,100101.22
2023-04-15T15:43:38.987Z,100100.38
2023-04-15T15:46:07.796Z,100111.78
2023-04-15T15:48:36.392Z,100107.41
2023-04-15T15:51:06.148Z,100107.41
2023-04-15T15:53:36.187Z,100114.38
2023-04-15T15:56:06.774Z,100109.97
2023-04-15T15:58:35.418Z,100107.34
2023-04-15T16:01:04.256Z,100113.41
2023-04-15T16:03:33.240Z,100119.44
2023-04-15T16:06:01.898Z,100116.75
2023-04-15T16:08:30.369Z,100129.78
2023-04-15T16:11:00.428Z,100125.28
2023-04-15T16:13:29.260Z,100134.81
2023-04-15T16:15:57.901Z,100140.84
2023-04-15T16:18:26.740Z,100140.75
2023-04-15T16:20:55.372Z,100141.56
2023-04-15T16:23:24.230Z,100136.25
2023-04-15T16:25:52.863Z,100139.72
2023-04-15T16:28:26.771Z,100141.41
2023-04-15T16:30:56.262Z,100148.31
2023-04-15T16:33:24.853Z,100150.00
2023-04-15T16:35:53.497Z,100149.06
2023-04-15T16:38:22.165Z,100164.75
2023-04-15T16:40:51.603Z,100166.44
2023-04-15T16:43:20.437Z,100175.94
2023-04-15T16:45:51.451Z,100171.50
2023-04-15T16:48:21.237Z,100170.59
2023-04-15T16:50:50.399Z,100175.75
2023-04-15T16:53:18.998Z,100174.00
2023-04-15T16:55:47.801Z,100182.66
2023-04-15T16:58:16.461Z,100191.28
2023-04-15T17:00:45.334Z,100187.69
2023-04-15T17:03:15.638Z,100194.53
2023-04-15T17:05:44.341Z,100193.47
2023-04-15T17:08:13.000Z,100196.03
2023-04-15T17:10:41.638Z,100190.69
2023-04-15T17:13:10.421Z,100197.50
2023-04-15T17:15:39.043Z,100205.22
2023-04-15T17:18:08.801Z,100198.25
2023-04-15T17:20:40.395Z,100206.03
2023-04-15T17:23:09.161Z,100209.50
2023-04-15T17:25:37.881Z,100209.50
2023-04-15T17:28:06.822Z,100200.72
2023-04-15T17:30:35.517Z,100212.03
2023-04-15T17:33:56.530Z,100213.69
2023-04-15T17:35:54.370Z,100213.66
2023-04-15T17:38:23.017Z,100217.06
2023-04-15T17:40:51.612Z,100224.91
2023-04-15T17:43:20.432Z,100229.16
2023-04-15T17:45:49.193Z,100233.38
2023-04-15T17:48:17.892Z,100242.00
2023-04-15T17:50:46.782Z,100238.34
2023-04-15T17:53:17.419Z,100235.56
2023-04-15T17:55:46.423Z,100246.81
2023-04-15T17:58:15.002Z,100245.88
2023-04-15T18:00:43.699Z,100257.97
2023-04-15T18:03:12.661Z,100256.97
2023-04-15T18:05:42.627Z,100257.75
2023-04-15T18:08:11.627Z,100260.22
2023-04-15T18:10:41.829Z,100269.69
2023-04-15T18:13:12.863Z,100275.69
2023-04-15T18:15:41.554Z,100275.59
2023-04-15T18:18:10.580Z,100275.47
2023-04-15T18:20:39.894Z,100275.38
2023-04-15T18:23:09.174Z,100284.00
2023-04-15T18:25:38.631Z,100286.50
2023-04-15T18:28:09.461Z,100295.13
2023-04-15T18:30:38.398Z,100299.41
2023-04-15T18:33:08.306Z,100298.47
2023-04-15T18:35:36.822Z,100304.53
2023-04-15T18:38:05.448Z,100307.94
2023-04-15T18:40:34.002Z,100311.31
2023-04-15T18:43:02.616Z,100305.97
2023-04-15T18:45:32.763Z,100319.00
2023-04-15T18:48:01.903Z,100325.88
2023-04-15T18:50:31.294Z,100329.19
2023-04-15T18:53:00.125Z,100321.31
2023-04-15T18:55:28.938Z,100342.22
2023-04-15T18:58:07.598Z,100336.03
2023-04-15T19:00:41.729Z,100343.88
2023-04-15T19:03:10.800Z,100336.88
2023-04-15T19:05:40.050Z,100342.13
2023-04-15T19:08:08.818Z,100345.53
2023-04-15T19:10:37.520Z,100339.44
2023-04-15T19:13:06.489Z,100349.88
2023-04-15T19:15:35.174Z,100349.00
2023-04-15T19:18:10.445Z,100348.16
2023-04-15T19:20:40.287Z,100347.19
2023-04-15T19:23:09.045Z,100362.88
2023-04-15T19:25:38.272Z,100367.13
2023-04-15T19:28:06.868Z,100368.81
2023-04-15T19:30:36.303Z,100373.97
2023-04-15T19:33:06.374Z,100375.69
2023-04-15T19:35:35.212Z,100376.53
2023-04-15T19:38:04.752Z,100379.13
2023-04-15T19:40:33.374Z,100379.97
2023-04-15T19:43:02.014Z,100382.50
2023-04-15T19:45:30.767Z,100385.00
2023-04-15T19:47:59.374Z,100390.19
2023-04-15T19:50:29.449Z,100397.97
2023-04-15T19:52:58.138Z,100398.84
2023-04-15T19:55:26.921Z,100400.50
2023-04-15T19:57:55.552Z,100404.91
2023-04-15T20:00:24.430Z,100406.56
2023-04-15T20:02:53.456Z,100408.41
2023-04-15T20:05:22.314Z,100406.63
2023-04-15T20:07:53.264Z,100405.72
2023-04-15T20:10:22.698Z,100415.28
2023-04-15T20:12:53.017Z,100414.31
2023-04-15T20:15:23.588Z,100419.50
2023-04-15T20:17:52.630Z,100418.59
2023-04-15T20:20:21.597Z,100411.59
2023-04-15T20:22:53.046Z,100414.13
2023-04-15T20:25:21.642Z,100419.34
2023-04-15T20:27:50.799Z,100417.59
2023-04-15T20:30:19.385Z,100421.03
2023-04-15T20:32:48.018Z,100427.06
2023-04-15T20:35:16.545Z,100423.59
2023-04-15T20:37:45.590Z,100428.81
2023-04-15T20:40:15.926Z,100424.44
2023-04-15T20:42:44.586Z,100417.38
2023-04-15T20:45:13.177Z,100411.31
2023-04-15T20:47:41.975Z,100425.13
2023-04-15T20:50:12.000Z,100422.44
2023-04-15T20:52:41.031Z,100406.66
2023-04-15T20:55:10.174Z,100415.34
2023-04-15T20:57:40.414Z,100418.75
2023-04-15T21:00:10.942Z,100428.38
2023-04-15T21:02:39.781Z,100425.63
2023-04-15T21:05:09.123Z,100422.22
2023-04-15T21:07:37.634Z,100423.03
2023-04-15T21:10:07.095Z,100429.97
2023-04-15T21:12:36.035Z,100429.94
2023-04-15T21:15:06.888Z,100436.84
2023-04-15T21:17:36.234Z,100439.41
2023-04-15T21:20:05.275Z,100442.81
2023-04-15T21:22:33.734Z,100449.84
2023-04-15T21:25:02.298Z,100450.66
2023-04-15T21:27:30.931Z,100446.28
2023-04-15T21:29:59.464Z,100456.72
2023-04-15T21:32:30.713Z,100446.19
2023-04-15T21:34:59.352Z,100454.94
2023-04-15T21:37:28.065Z,100456.59
2023-04-15T21:39:56.665Z,100461.81
2023-04-15T21:42:26.150Z,100469.56
2023-04-15T21:44:54.606Z,100466.06
2023-04-15T21:47:23.162Z,100472.19
2023-04-15T21:49:53.415Z,100475.63
2023-04-15T21:52:21.991Z,100474.66
2023-04-15T21:54:50.516Z,100477.28
2023-04-15T21:57:19.076Z,100480.75
2023-04-15T21:59:47.588Z,100478.16
2023-04-15T22:02:18.311Z,100487.78
2023-04-15T22:04:46.991Z,100488.66
2023-04-15T22:07:16.922Z,100489.56
2023-04-15T22:09:46.477Z,100495.66
2023-04-15T22:12:15.018Z,100498.25
2023-04-15T22:14:43.584Z,100501.75
2023-04-15T22:17:12.184Z,100503.56
2023-04-15T22:19:41.026Z,100498.34
2023-04-15T22:22:09.596Z,100493.13
2023-04-15T22:24:40.561Z,100500.94
2023-04-15T22:27:09.746Z,100500.94
2023-04-15T22:29:38.293Z,100506.22
2023-04-15T22:32:07.947Z,100509.72
2023-04-15T22:34:36.456Z,100511.44
2023-04-15T22:37:05.058Z,100517.56
2023-04-15T22:39:33.593Z,100528.03
2023-04-15T22:42:03.524Z,100514.13
2023-04-15T22:44:32.185Z,100508.06
2023-04-15T22:47:01.229Z,100521.09
2023-04-15T22:49:32.226Z,100522.78
2023-04-15T22:52:01.028Z,100528.81
2023-04-15T22:54:29.575Z,100528.75
2023-04-15T22:56:58.326Z,100533.97
2023-04-15T22:59:28.350Z,100529.66
2023-04-15T23:01:57.959Z,100537.47
2023-04-15T23:04:27.571Z,100535.66
2023-04-15T23:06:56.790Z,100532.25
2023-04-15T23:09:25.544Z,100538.28
2023-04-15T23:11:56.687Z,100537.41
2023-04-15T23:14:26.282Z,100538.28
2023-04-15T23:16:57.300Z,100541.72
2023-04-15T23:19:26.205Z,100539.97
2023-04-15T23:21:56.597Z,100546.06
2023-04-15T23:24:27.971Z,100545.03
2023-04-15T23:27:02.510Z,100557.25
2023-04-15T23:29:34.038Z,100551.16
2023-04-15T23:32:06.222Z,100546.81
2023-04-15T23:34:35.036Z,100559.03
2023-04-15T23:37:04.409Z,100550.44
2023-04-15T23:39:32.967Z,100553.06
2023-04-15T23:42:02.803Z,100553.13
2023-04-15T23:44:31.419Z,100550.44
2023-04-15T23:47:00.062Z,100553.06
2023-04-15T23:49:30.540Z,100553.13
2023-04-15T23:51:59.161Z,100553.94
2023-04-15T23:54:27.904Z,100553.94
2023-04-15T23:56:56.585Z,100552.25
2023-04-15T23:59:25.383Z,100548.72
